createdAt,value
2022-11-29T00:01:42.849Z,100733.68
2022-11-29T00:04:11.649Z,100737.23
2022-11-29T00:06:40.627Z,100733.88
2022-11-29T00:09:13.324Z,100739.50
2022-11-29T00:12:00.887Z,100737.98
2022-11-29T00:14:30.043Z,100733.09
2022-11-29T00:17:02.810Z,100733.92
2022-11-29T00:19:36.329Z,100738.83
2022-11-29T00:22:05.220Z,100729.23
2022-11-29T00:24:33.890Z,100727.36
2022-11-29T00:27:02.758Z,100724.08
2022-11-29T00:29:31.411Z,100722.65
2022-11-29T00:32:00.392Z,100718.52
2022-11-29T00:34:29.270Z,100725.84
2022-11-29T00:36:57.944Z,100723.59
2022-11-29T00:39:26.520Z,100723.47
2022-11-29T00:41:55.175Z,100724.55
2022-11-29T00:44:23.615Z,100727.16
2022-11-29T00:46:52.309Z,100726.63
2022-11-29T00:49:20.921Z,100726.09
2022-11-29T00:51:49.466Z,100725.45
2022-11-29T00:54:18.365Z,100726.27
2022-11-29T00:56:47.174Z,100720.45
2022-11-29T00:59:15.602Z,100728.71
2022-11-29T01:01:44.741Z,100726.52
2022-11-29T01:04:13.285Z,100725.96
2022-11-29T01:06:41.769Z,100714.30
2022-11-29T01:09:10.211Z,100717.09
2022-11-29T01:11:38.717Z,100713.86
2022-11-29T01:14:07.234Z,100711.01
2022-11-29T01:16:35.732Z,100713.29
2022-11-29T01:19:05.096Z,100712.40
2022-11-29T01:21:34.075Z,100708.39
2022-11-29T01:24:03.009Z,100705.88
2022-11-29T01:26:32.267Z,100703.27
2022-11-29T01:29:00.829Z,100702.95
2022-11-29T01:31:38.151Z,100702.48
2022-11-29T01:34:07.984Z,100704.89
2022-11-29T01:36:36.366Z,100702.43
2022-11-29T01:39:06.601Z,100696.83
2022-11-29T01:41:38.026Z,100696.01
2022-11-29T01:44:26.861Z,100696.50
2022-11-29T01:46:56.952Z,100689.89
2022-11-29T01:49:35.513Z,100687.79
2022-11-29T01:52:15.040Z,100691.44
2022-11-29T01:54:48.649Z,100692.31
2022-11-29T01:57:18.767Z,100692.50
2022-11-29T01:59:52.169Z,100699.16
2022-11-29T02:02:36.069Z,100695.64
2022-11-29T02:05:05.693Z,100693.89
2022-11-29T02:07:34.498Z,100697.05
2022-11-29T02:10:04.745Z,100690.95
2022-11-29T02:13:09.485Z,100689.27
2022-11-29T02:15:51.475Z,100686.74
2022-11-29T02:18:41.416Z,100686.54
2022-11-29T02:21:21.670Z,100692.39
2022-11-29T02:24:37.501Z,100689.67
2022-11-29T02:27:17.735Z,100688.23
2022-11-29T02:30:12.619Z,100690.73
2022-11-29T02:33:40.918Z,100691.60
2022-11-29T02:36:30.589Z,100688.31
2022-11-29T02:39:24.801Z,100684.45
2022-11-29T02:42:56.041Z,100685.77
2022-11-29T02:46:11.555Z,100681.91
2022-11-29T02:49:05.144Z,100685.70
2022-11-29T02:51:52.191Z,100686.66
2022-11-29T02:54:59.004Z,100688.52
2022-11-29T02:57:45.165Z,100685.91
2022-11-29T03:00:20.622Z,100683.43
2022-11-29T03:02:52.241Z,100683.00
2022-11-29T03:05:54.044Z,100683.55
2022-11-29T03:08:47.941Z,100688.96
2022-11-29T03:11:56.270Z,100691.83
2022-11-29T03:14:27.111Z,100684.48
2022-11-29T03:17:42.569Z,100682.58
2022-11-29T03:20:38.765Z,100685.60
2022-11-29T03:23:19.977Z,100692.95
2022-11-29T03:26:23.651Z,100681.85
2022-11-29T03:29:16.706Z,100697.13
2022-11-29T03:32:00.759Z,100695.95
2022-11-29T03:35:07.840Z,100697.02
2022-11-29T03:37:46.558Z,100701.88
2022-11-29T03:40:21.552Z,100702.88
2022-11-29T03:43:41.942Z,100704.16
2022-11-29T03:46:26.704Z,100704.79
2022-11-29T03:49:11.720Z,100703.92
2022-11-29T03:52:06.353Z,100706.17
2022-11-29T03:55:02.203Z,100711.88
2022-11-29T03:57:45.565Z,100714.48
2022-11-29T04:00:15.993Z,100715.88
2022-11-29T04:03:37.004Z,100716.86
2022-11-29T04:06:24.429Z,100716.64
2022-11-29T04:09:46.570Z,100719.72
2022-11-29T04:13:21.437Z,100715.96
2022-11-29T04:16:17.173Z,100718.71
2022-11-29T04:19:19.810Z,100720.66
2022-11-29T04:22:25.264Z,100717.95
2022-11-29T04:25:11.651Z,100722.67
2022-11-29T04:27:58.982Z,100720.57
2022-11-29T04:30:34.374Z,100725.98
2022-11-29T04:33:24.201Z,100725.02
2022-11-29T04:36:25.244Z,100722.08
2022-11-29T04:39:33.285Z,100716.06
2022-11-29T04:42:19.656Z,100726.04
2022-11-29T04:45:13.645Z,100729.05
2022-11-29T04:48:09.773Z,100737.19
2022-11-29T04:51:10.667Z,100737.05
2022-11-29T04:53:58.639Z,100738.75
2022-11-29T04:56:43.584Z,100735.98
2022-11-29T04:59:27.373Z,100737.49
2022-11-29T05:02:11.112Z,100737.55
2022-11-29T05:05:06.650Z,100739.95
2022-11-29T05:08:23.046Z,100746.13
2022-11-29T05:11:33.644Z,100747.73
2022-11-29T05:14:10.853Z,100751.40
2022-11-29T05:16:57.467Z,100755.34
2022-11-29T05:19:37.390Z,100760.30
2022-11-29T05:22:28.683Z,100765.70
2022-11-29T05:25:14.291Z,100760.83
2022-11-29T05:28:20.793Z,100769.98
2022-11-29T05:31:20.091Z,100767.29
2022-11-29T05:33:53.672Z,100769.48
2022-11-29T05:36:40.443Z,100770.15
2022-11-29T05:39:14.579Z,100780.92
2022-11-29T05:42:26.263Z,100780.92
2022-11-29T05:45:08.662Z,100788.06
2022-11-29T05:48:03.417Z,100780.54
2022-11-29T05:50:46.120Z,100777.16
2022-11-29T05:53:25.306Z,100789.27
2022-11-29T05:56:12.897Z,100790.83
2022-11-29T05:58:59.380Z,100797.19
2022-11-29T06:01:55.685Z,100794.30
2022-11-29T06:05:04.547Z,100793.80
2022-11-29T06:08:00.789Z,100799.05
2022-11-29T06:10:34.184Z,100792.05
2022-11-29T06:13:19.851Z,100793.48
2022-11-29T06:16:45.802Z,100788.00
2022-11-29T06:19:44.434Z,100788.87
2022-11-29T06:22:40.740Z,100793.14
2022-11-29T06:26:03.542Z,100801.41
2022-11-29T06:28:45.189Z,100806.70
2022-11-29T06:31:27.867Z,100803.13
2022-11-29T06:34:40.627Z,100811.73
2022-11-29T06:37:37.370Z,100797.13
2022-11-29T06:40:11.227Z,100791.40
2022-11-29T06:42:39.728Z,100802.34
2022-11-29T06:45:14.118Z,100795.00
2022-11-29T06:47:49.351Z,100803.27
2022-11-29T06:50:50.120Z,100808.73
2022-11-29T06:53:55.147Z,100809.98
2022-11-29T06:56:47.246Z,100805.30
2022-11-29T06:59:54.998Z,100812.11
2022-11-29T07:02:58.687Z,100798.55
2022-11-29T07:05:37.018Z,100805.59
2022-11-29T07:08:12.526Z,100803.08
2022-11-29T07:10:44.874Z,100804.80
2022-11-29T07:13:14.035Z,100806.70
2022-11-29T07:15:51.686Z,100803.77
2022-11-29T07:18:45.072Z,100799.70
2022-11-29T07:21:22.659Z,100802.75
2022-11-29T07:24:19.228Z,100791.87
2022-11-29T07:27:22.146Z,100789.73
2022-11-29T07:30:34.241Z,100787.22
2022-11-29T07:33:35.009Z,100798.90
2022-11-29T07:36:14.677Z,100809.25
2022-11-29T07:38:50.155Z,100795.05
2022-11-29T07:41:36.429Z,100805.20
2022-11-29T07:44:40.435Z,100802.46
2022-11-29T07:47:09.334Z,100810.99
2022-11-29T07:49:37.955Z,100809.71
2022-11-29T07:52:06.514Z,100809.58
2022-11-29T07:54:35.145Z,100790.69
2022-11-29T07:57:03.821Z,100805.23
2022-11-29T07:59:32.622Z,100806.73
2022-11-29T08:02:01.687Z,100807.84
2022-11-29T08:04:30.510Z,100808.67
2022-11-29T08:07:00.394Z,100813.27
2022-11-29T08:09:28.877Z,100812.64
2022-11-29T08:11:57.423Z,100806.94
2022-11-29T08:14:26.078Z,100811.08
2022-11-29T08:16:55.042Z,100814.28
2022-11-29T08:19:23.850Z,100814.42
2022-11-29T08:21:52.645Z,100813.60
2022-11-29T08:24:23.360Z,100812.27
2022-11-29T08:26:52.267Z,100814.44
2022-11-29T08:29:20.900Z,100816.73
2022-11-29T08:31:54.780Z,100814.88
2022-11-29T08:34:25.320Z,100814.61
2022-11-29T08:36:56.759Z,100816.19
2022-11-29T08:39:25.813Z,100816.80
2022-11-29T08:41:54.608Z,100814.55
2022-11-29T08:44:23.426Z,100811.11
2022-11-29T08:47:10.550Z,100807.19
2022-11-29T08:50:00.918Z,100797.32
2022-11-29T08:52:54.296Z,100803.27
2022-11-29T08:55:27.659Z,100792.94
2022-11-29T08:58:03.733Z,100799.14
2022-11-29T09:00:33.789Z,100796.46
2022-11-29T09:03:31.597Z,100794.44
2022-11-29T09:06:11.939Z,100785.60
2022-11-29T09:08:43.958Z,100781.13
2022-11-29T09:11:20.478Z,100785.80
2022-11-29T09:13:57.546Z,100787.03
2022-11-29T09:16:30.621Z,100780.55
2022-11-29T09:19:02.407Z,100784.06
2022-11-29T09:21:34.619Z,100785.33
2022-11-29T09:24:06.875Z,100785.55
2022-11-29T09:26:38.374Z,100783.63
2022-11-29T09:29:07.374Z,100786.95
2022-11-29T09:31:36.023Z,100790.22
2022-11-29T09:34:04.964Z,100792.12
2022-11-29T09:36:34.336Z,100789.58
2022-11-29T09:39:03.131Z,100786.73
2022-11-29T09:41:53.111Z,100781.38
2022-11-29T09:44:49.807Z,100774.44
2022-11-29T09:47:43.789Z,100771.38
2022-11-29T09:50:45.867Z,100772.14
2022-11-29T09:53:53.465Z,100769.24
2022-11-29T09:56:41.545Z,100766.02
2022-11-29T09:59:18.750Z,100777.80
2022-11-29T10:01:56.319Z,100775.35
2022-11-29T10:04:31.361Z,100772.77
2022-11-29T10:07:33.800Z,100764.75
2022-11-29T10:10:29.835Z,100767.86
2022-11-29T10:13:16.245Z,100765.90
2022-11-29T10:15:47.203Z,100770.86
2022-11-29T10:18:39.153Z,100764.13
2022-11-29T10:21:17.978Z,100764.94
2022-11-29T10:23:52.746Z,100755.83
2022-11-29T10:26:23.161Z,100760.33
2022-11-29T10:28:51.941Z,100751.82
2022-11-29T10:31:27.238Z,100756.34
2022-11-29T10:33:58.482Z,100750.98
2022-11-29T10:36:47.091Z,100755.67
2022-11-29T10:39:20.125Z,100756.77
2022-11-29T10:41:55.921Z,100757.75
2022-11-29T10:44:25.090Z,100753.23
2022-11-29T10:46:54.656Z,100750.30
2022-11-29T10:49:28.634Z,100751.16
2022-11-29T10:51:57.074Z,100748.88
2022-11-29T10:54:44.685Z,100744.61
2022-11-29T10:57:21.416Z,100750.16
2022-11-29T11:00:11.691Z,100745.69
2022-11-29T11:02:40.601Z,100752.95
2022-11-29T11:05:19.103Z,100746.41
2022-11-29T11:07:57.665Z,100744.02
2022-11-29T11:10:31.034Z,100746.43
2022-11-29T11:13:08.317Z,100729.02
2022-11-29T11:15:38.033Z,100732.57
2022-11-29T11:18:19.264Z,100747.24
2022-11-29T11:20:55.016Z,100748.81
2022-11-29T11:23:27.260Z,100754.69
2022-11-29T11:26:00.991Z,100741.84
2022-11-29T11:28:38.280Z,100752.44
2022-11-29T11:31:10.297Z,100754.39
2022-11-29T11:33:44.454Z,100744.54
2022-11-29T11:36:15.324Z,100750.71
2022-11-29T11:38:58.842Z,100751.13
2022-11-29T11:41:52.120Z,100757.79
2022-11-29T11:44:51.254Z,100753.98
2022-11-29T11:47:24.575Z,100751.28
2022-11-29T11:49:56.730Z,100748.88
2022-11-29T11:52:39.604Z,100749.17
2022-11-29T11:55:21.271Z,100741.23
2022-11-29T11:58:09.779Z,100737.56
2022-11-29T12:01:16.665Z,100742.98
2022-11-29T12:04:42.700Z,100745.70
2022-11-29T12:07:51.901Z,100730.34
2022-11-29T12:10:24.871Z,100745.77
2022-11-29T12:12:55.062Z,100747.11
2022-11-29T12:15:45.355Z,100751.60
2022-11-29T12:18:31.553Z,100749.02
2022-11-29T12:21:32.603Z,100754.55
2022-11-29T12:24:19.285Z,100749.32
2022-11-29T12:26:57.088Z,100745.05
2022-11-29T12:29:30.683Z,100746.25
2022-11-29T12:32:01.937Z,100742.83
2022-11-29T12:35:01.177Z,100742.15
2022-11-29T12:37:51.177Z,100742.11
2022-11-29T12:40:36.326Z,100743.77
2022-11-29T12:44:11.310Z,100743.41
2022-11-29T12:46:43.112Z,100743.92
2022-11-29T12:49:25.706Z,100742.96
2022-11-29T12:52:46.613Z,100744.14
2022-11-29T12:55:55.507Z,100740.16
2022-11-29T12:58:39.060Z,100748.89
2022-11-29T13:01:18.704Z,100750.94
2022-11-29T13:04:11.973Z,100750.11
2022-11-29T13:07:06.418Z,100750.04
2022-11-29T13:10:21.365Z,100745.72
2022-11-29T13:13:01.677Z,100752.52
2022-11-29T13:15:41.422Z,100752.10
2022-11-29T13:18:55.404Z,100755.55
2022-11-29T13:21:46.625Z,100757.17
2022-11-29T13:24:47.312Z,100758.17
2022-11-29T13:27:29.796Z,100754.39
2022-11-29T13:30:00.827Z,100743.79
2022-11-29T13:32:43.564Z,100754.87
2022-11-29T13:35:15.020Z,100761.83
2022-11-29T13:37:55.302Z,100763.77
2022-11-29T13:40:40.323Z,100766.30
2022-11-29T13:43:46.058Z,100765.75
2022-11-29T13:47:10.077Z,100765.79
2022-11-29T13:50:04.590Z,100773.89
2022-11-29T13:52:50.009Z,100780.28
2022-11-29T13:55:29.781Z,100776.64
2022-11-29T13:58:33.491Z,100780.66
2022-11-29T14:01:08.013Z,100785.80
2022-11-29T14:03:38.885Z,100784.97
2022-11-29T14:06:19.017Z,100790.08
2022-11-29T14:11:51.103Z,100784.02
2022-11-29T14:14:28.766Z,100774.09
2022-11-29T14:17:06.663Z,100780.95
2022-11-29T14:19:37.091Z,100776.79
2022-11-29T14:22:21.578Z,100775.92
2022-11-29T14:25:01.110Z,100773.77
2022-11-29T14:27:29.538Z,100763.49
2022-11-29T14:29:58.824Z,100767.98
2022-11-29T14:32:33.262Z,100771.53
2022-11-29T14:35:12.344Z,100765.22
2022-11-29T14:38:08.293Z,100765.64
2022-11-29T14:40:43.000Z,100771.64
2022-11-29T14:43:36.766Z,100769.69
2022-11-29T14:46:14.519Z,100775.81
2022-11-29T14:49:09.215Z,100774.92
2022-11-29T14:51:37.726Z,100775.67
2022-11-29T14:54:13.442Z,100775.73
2022-11-29T14:56:45.214Z,100774.21
2022-11-29T14:59:53.674Z,100774.82
2022-11-29T15:02:38.117Z,100778.36
2022-11-29T15:05:35.973Z,100780.77
2022-11-29T15:08:09.776Z,100781.94
2022-11-29T15:10:56.135Z,100778.12
2022-11-29T15:13:32.105Z,100773.98
2022-11-29T15:16:29.076Z,100768.92
2022-11-29T15:19:16.078Z,100775.70
2022-11-29T15:21:44.451Z,100775.52
2022-11-29T15:24:16.645Z,100779.25
2022-11-29T15:27:04.446Z,100781.73
2022-11-29T15:29:33.987Z,100782.52
2022-11-29T15:32:06.387Z,100776.88
2022-11-29T15:34:43.496Z,100779.81
2022-11-29T15:37:33.927Z,100783.33
2022-11-29T15:40:24.015Z,100787.28
2022-11-29T15:43:14.636Z,100789.94
2022-11-29T15:45:52.270Z,100789.27
2022-11-29T15:48:29.552Z,100792.12
2022-11-29T15:50:58.017Z,100793.20
2022-11-29T15:53:39.839Z,100781.59
2022-11-29T15:56:52.337Z,100792.66
2022-11-29T15:59:43.854Z,100795.90
2022-11-29T16:02:28.552Z,100795.82
2022-11-29T16:05:25.420Z,100793.77
2022-11-29T16:07:58.973Z,100791.33
2022-11-29T16:10:46.418Z,100795.63
2022-11-29T16:13:41.568Z,100793.45
2022-11-29T16:16:23.275Z,100791.38
2022-11-29T16:18:51.751Z,100794.73
2022-11-29T16:21:31.844Z,100793.85
2022-11-29T16:24:13.109Z,100791.42
2022-11-29T16:26:45.513Z,100785.61
2022-11-29T16:29:35.263Z,100794.41
2022-11-29T16:32:25.329Z,100797.02
2022-11-29T16:34:54.549Z,100795.35
2022-11-29T16:37:31.801Z,100797.08
2022-11-29T16:40:02.041Z,100794.70
2022-11-29T16:42:33.906Z,100799.70
2022-11-29T16:45:02.439Z,100800.40
2022-11-29T16:47:47.349Z,100804.17
2022-11-29T16:50:20.565Z,100808.15
2022-11-29T16:52:56.123Z,100817.17
2022-11-29T16:55:24.961Z,100819.00
2022-11-29T16:57:53.620Z,100824.34
2022-11-29T17:00:31.821Z,100824.70
2022-11-29T17:03:00.825Z,100825.98
2022-11-29T17:05:30.367Z,100826.70
2022-11-29T17:07:58.997Z,100823.42
2022-11-29T17:10:29.135Z,100820.02
2022-11-29T17:12:57.814Z,100819.20
2022-11-29T17:15:26.403Z,100827.02
2022-11-29T17:17:55.189Z,100821.05
2022-11-29T17:20:23.679Z,100833.42
2022-11-29T17:22:52.318Z,100837.09
2022-11-29T17:25:21.006Z,100836.73
2022-11-29T17:27:49.826Z,100839.26
2022-11-29T17:30:18.720Z,100840.25
2022-11-29T17:32:47.504Z,100844.56
2022-11-29T17:35:16.101Z,100845.52
2022-11-29T17:37:44.805Z,100847.14
2022-11-29T17:40:15.588Z,100851.45
2022-11-29T17:42:44.090Z,100849.05
2022-11-29T17:45:12.775Z,100854.63
2022-11-29T17:47:41.461Z,100851.38
2022-11-29T17:50:11.149Z,100856.63
2022-11-29T17:52:40.087Z,100860.04
2022-11-29T17:55:09.734Z,100862.42
2022-11-29T17:57:38.490Z,100863.83
2022-11-29T18:00:09.098Z,100862.48
2022-11-29T18:02:37.856Z,100845.86
2022-11-29T18:05:07.701Z,100859.85
2022-11-29T18:07:56.173Z,100861.80
2022-11-29T18:10:26.759Z,100863.55
2022-11-29T18:12:55.359Z,100863.28
2022-11-29T18:15:24.348Z,100867.61
2022-11-29T18:17:53.139Z,100869.86
2022-11-29T18:20:21.816Z,100860.62
2022-11-29T18:22:50.435Z,100867.66
2022-11-29T18:25:38.106Z,100869.10
2022-11-29T18:28:08.493Z,100868.27
2022-11-29T18:30:37.013Z,100869.98
2022-11-29T18:33:05.734Z,100869.45
2022-11-29T18:35:34.514Z,100867.49
2022-11-29T18:38:18.368Z,100866.89
2022-11-29T18:40:46.942Z,100871.45
2022-11-29T18:43:17.057Z,100867.64
2022-11-29T18:45:45.663Z,100869.86
2022-11-29T18:48:14.327Z,100869.37
2022-11-29T18:50:42.918Z,100869.39
2022-11-29T18:53:12.872Z,100870.89
2022-11-29T18:55:41.716Z,100871.96
2022-11-29T18:58:10.511Z,100871.12
2022-11-29T19:00:39.526Z,100869.93
2022-11-29T19:03:08.049Z,100868.53
2022-11-29T19:05:36.661Z,100866.35
2022-11-29T19:08:05.623Z,100860.73
2022-11-29T19:10:34.234Z,100865.27
2022-11-29T19:13:02.798Z,100869.09
2022-11-29T19:15:31.613Z,100869.08
2022-11-29T19:18:00.533Z,100867.36
2022-11-29T19:20:29.200Z,100867.20
2022-11-29T19:23:00.644Z,100866.80
2022-11-29T19:25:29.523Z,100868.15
2022-11-29T19:27:58.212Z,100867.31
2022-11-29T19:30:26.893Z,100867.98
2022-11-29T19:32:55.480Z,100856.02
2022-11-29T19:35:24.290Z,100866.91
2022-11-29T19:37:52.951Z,100866.77
2022-11-29T19:40:22.899Z,100862.62
2022-11-29T19:42:51.554Z,100875.02
2022-11-29T19:45:20.237Z,100879.17
2022-11-29T19:47:48.921Z,100881.59
2022-11-29T19:50:17.489Z,100879.14
2022-11-29T19:52:46.190Z,100878.23
2022-11-29T19:55:14.877Z,100884.04
2022-11-29T19:57:43.597Z,100885.94
2022-11-29T20:00:13.397Z,100885.24
2022-11-29T20:02:43.342Z,100885.13
2022-11-29T20:05:12.896Z,100875.21
2022-11-29T20:07:41.883Z,100884.34
2022-11-29T20:10:11.551Z,100879.39
2022-11-29T20:12:40.282Z,100876.19
2022-11-29T20:15:09.557Z,100875.82
2022-11-29T20:17:38.501Z,100873.65
2022-11-29T20:20:10.224Z,100878.29
2022-11-29T20:22:38.846Z,100878.98
2022-11-29T20:25:08.339Z,100880.31
2022-11-29T20:27:36.901Z,100883.92
2022-11-29T20:30:08.282Z,100888.62
2022-11-29T20:32:37.096Z,100888.96
2022-11-29T20:35:06.843Z,100885.83
2022-11-29T20:38:00.931Z,100889.23
2022-11-29T20:40:46.237Z,100884.05
2022-11-29T20:43:24.522Z,100882.67
2022-11-29T20:45:54.058Z,100887.19
2022-11-29T20:48:23.542Z,100887.08
2022-11-29T20:50:58.934Z,100886.92
2022-11-29T20:53:41.154Z,100882.19
2022-11-29T20:56:11.568Z,100881.67
2022-11-29T20:58:40.559Z,100881.52
2022-11-29T21:01:09.349Z,100882.20
2022-11-29T21:03:38.073Z,100883.30
2022-11-29T21:06:07.422Z,100885.26
2022-11-29T21:08:37.518Z,100884.20
2022-11-29T21:11:10.529Z,100888.48
2022-11-29T21:13:40.331Z,100888.59
2022-11-29T21:16:11.837Z,100888.77
2022-11-29T21:18:41.403Z,100888.42
2022-11-29T21:21:09.794Z,100884.41
2022-11-29T21:24:01.445Z,100883.33
2022-11-29T21:26:51.018Z,100888.30
2022-11-29T21:29:24.541Z,100883.56
2022-11-29T21:31:54.596Z,100882.48
2022-11-29T21:34:23.219Z,100880.69
2022-11-29T21:36:58.972Z,100881.04
2022-11-29T21:39:34.157Z,100877.68
2022-11-29T21:42:03.208Z,100876.99
2022-11-29T21:44:31.795Z,100875.85
2022-11-29T21:47:00.477Z,100877.29
2022-11-29T21:49:29.090Z,100880.41
2022-11-29T21:52:00.504Z,100880.80
2022-11-29T21:54:29.804Z,100880.20
2022-11-29T21:56:58.906Z,100881.83
2022-11-29T21:59:28.450Z,100885.24
2022-11-29T22:01:57.386Z,100878.23
2022-11-29T22:04:26.082Z,100879.04
2022-11-29T22:06:54.768Z,100883.25
2022-11-29T22:09:23.660Z,100879.10
2022-11-29T22:11:52.343Z,100881.23
2022-11-29T22:14:20.928Z,100880.01
2022-11-29T22:16:50.543Z,100881.73
2022-11-29T22:19:23.970Z,100871.67
2022-11-29T22:21:57.223Z,100867.69
2022-11-29T22:24:32.265Z,100859.92
2022-11-29T22:27:01.906Z,100853.17
2022-11-29T22:29:30.791Z,100855.67
2022-11-29T22:31:59.955Z,100855.11
2022-11-29T22:34:28.889Z,100852.02
2022-11-29T22:36:57.361Z,100857.70
2022-11-29T22:39:26.011Z,100861.45
2022-11-29T22:41:55.407Z,100865.04
2022-11-29T22:44:24.615Z,100866.23
2022-11-29T22:46:53.460Z,100871.52
2022-11-29T22:49:22.220Z,100867.13
2022-11-29T22:51:50.973Z,100865.77
2022-11-29T22:54:20.582Z,100865.71
2022-11-29T22:56:49.167Z,100862.52
2022-11-29T22:59:17.985Z,100856.23
2022-11-29T23:01:47.246Z,100853.86
2022-11-29T23:04:16.181Z,100850.48
2022-11-29T23:06:46.366Z,100843.35
2022-11-29T23:09:21.323Z,100846.23
2022-11-29T23:11:53.371Z,100841.57
2022-11-29T23:14:23.020Z,100843.66
2022-11-29T23:16:52.111Z,100843.01
2022-11-29T23:19:20.960Z,100839.48
2022-11-29T23:21:49.539Z,100837.74
2022-11-29T23:24:18.324Z,100834.61
2022-11-29T23:26:47.766Z,100832.08
2022-11-29T23:29:19.283Z,100824.98
2022-11-29T23:31:50.305Z,100824.58
2022-11-29T23:34:19.407Z,100818.69
2022-11-29T23:36:52.684Z,100820.45
2022-11-29T23:39:21.907Z,100821.34
2022-11-29T23:41:50.635Z,100826.42
2022-11-29T23:44:19.177Z,100826.09
2022-11-29T23:46:47.866Z,100830.77
2022-11-29T23:49:16.648Z,100834.46
2022-11-29T23:51:45.438Z,100830.69
2022-11-29T23:54:14.026Z,100830.36
2022-11-29T23:56:42.711Z,100832.83
2022-11-29T23:59:11.805Z,100831.73
